createdAt,value
2022-12-14T00:01:37.268Z,95.68
2022-12-14T00:04:04.398Z,95.11
2022-12-14T00:06:32.701Z,95.06
2022-12-14T00:09:01.972Z,95.14
2022-12-14T00:11:30.004Z,95.07
2022-12-14T00:13:59.370Z,94.93
2022-12-14T00:16:28.638Z,95.04
2022-12-14T00:18:57.025Z,95.14
2022-12-14T00:21:23.949Z,95.29
2022-12-14T00:23:52.132Z,94.49
2022-12-14T00:26:31.273Z,94.62
2022-12-14T00:28:59.440Z,94.86
2022-12-14T00:31:26.337Z,94.67
2022-12-14T00:33:53.127Z,94.28
2022-12-14T00:36:20.571Z,94.85
2022-12-14T00:38:47.417Z,95.21
2022-12-14T00:41:14.083Z,95.12
2022-12-14T00:43:40.986Z,94.98
2022-12-14T00:46:08.147Z,95.18
2022-12-14T00:48:35.408Z,94.87
2022-12-14T00:51:02.422Z,95.19
2022-12-14T00:53:29.211Z,94.67
2022-12-14T00:55:55.936Z,94.78
2022-12-14T00:58:27.003Z,95.00
2022-12-14T01:01:05.601Z,95.11
2022-12-14T01:03:33.376Z,94.91
2022-12-14T01:06:00.722Z,94.75
2022-12-14T01:08:35.527Z,95.20
2022-12-14T01:11:07.245Z,95.18
2022-12-14T01:13:34.556Z,95.51
2022-12-14T01:16:06.637Z,95.52
2022-12-14T01:18:38.262Z,95.25
2022-12-14T01:21:22.810Z,94.76
2022-12-14T01:24:02.294Z,94.96
2022-12-14T01:26:30.449Z,95.22
2022-12-14T01:28:59.139Z,95.28
2022-12-14T01:31:32.083Z,95.79
2022-12-14T01:33:59.152Z,95.79
2022-12-14T01:36:28.777Z,96.15
2022-12-14T01:39:04.103Z,96.47
2022-12-14T01:41:39.771Z,96.61
2022-12-14T01:44:09.288Z,96.32
2022-12-14T01:46:44.512Z,96.22
2022-12-14T01:49:16.465Z,96.06
2022-12-14T01:51:50.052Z,95.65
2022-12-14T01:54:16.877Z,94.68
2022-12-14T01:56:45.858Z,95.20
2022-12-14T01:59:21.957Z,95.59
2022-12-14T02:01:49.237Z,95.36
2022-12-14T02:04:18.205Z,94.97
2022-12-14T02:06:49.049Z,94.90
2022-12-14T02:09:20.535Z,94.53
2022-12-14T02:11:55.090Z,94.64
2022-12-14T02:14:22.275Z,94.43
2022-12-14T02:16:55.107Z,94.58
2022-12-14T02:19:22.009Z,94.60
2022-12-14T02:22:08.091Z,94.27
2022-12-14T02:24:52.761Z,94.33
2022-12-14T02:27:34.756Z,94.45
2022-12-14T02:30:14.733Z,94.47
2022-12-14T02:32:47.817Z,95.26
2022-12-14T02:35:35.659Z,95.18
2022-12-14T02:38:20.082Z,94.91
2022-12-14T02:41:23.739Z,95.14
2022-12-14T02:44:00.938Z,94.96
2022-12-14T02:46:50.342Z,94.55
2022-12-14T02:49:52.552Z,94.33
2022-12-14T02:52:37.503Z,94.74
2022-12-14T02:55:18.374Z,94.66
2022-12-14T02:57:53.518Z,94.79
2022-12-14T03:00:20.419Z,95.42
2022-12-14T03:02:49.254Z,95.55
2022-12-14T03:05:16.208Z,95.36
2022-12-14T03:08:09.044Z,95.49
2022-12-14T03:10:55.345Z,95.49
2022-12-14T03:13:36.944Z,95.03
2022-12-14T03:16:03.611Z,94.87
2022-12-14T03:18:36.255Z,94.71
2022-12-14T03:21:07.887Z,95.12
2022-12-14T03:23:55.633Z,95.11
2022-12-14T03:26:26.532Z,95.16
2022-12-14T03:29:19.989Z,94.68
2022-12-14T03:32:10.456Z,94.62
2022-12-14T03:34:53.259Z,94.34
2022-12-14T03:37:39.760Z,94.02
2022-12-14T03:40:13.469Z,93.84
2022-12-14T03:42:56.703Z,94.52
2022-12-14T03:45:42.549Z,94.43
2022-12-14T03:48:30.752Z,94.25
2022-12-14T03:51:14.344Z,94.55
2022-12-14T03:53:50.095Z,94.62
2022-12-14T03:56:39.416Z,94.42
2022-12-14T03:59:18.123Z,94.08
2022-12-14T04:01:57.479Z,94.32
2022-12-14T04:04:36.272Z,95.05
2022-12-14T04:07:18.062Z,94.76
2022-12-14T04:09:54.527Z,94.60
2022-12-14T04:12:53.678Z,94.22
2022-12-14T04:15:53.741Z,93.85
2022-12-14T04:18:46.690Z,93.85
2022-12-14T04:21:32.105Z,94.30
2022-12-14T04:24:22.283Z,94.27
2022-12-14T04:27:00.886Z,94.44
2022-12-14T04:29:51.218Z,94.40
2022-12-14T04:32:26.566Z,94.15
2022-12-14T04:35:16.418Z,94.22
2022-12-14T04:37:48.856Z,94.83
2022-12-14T04:40:21.882Z,94.80
2022-12-14T04:42:55.853Z,94.45
2022-12-14T04:45:30.925Z,94.40
2022-12-14T04:48:08.282Z,94.21
2022-12-14T04:50:40.368Z,93.90
2022-12-14T04:53:16.383Z,94.13
2022-12-14T04:55:58.216Z,94.25
2022-12-14T04:58:28.134Z,94.28
2022-12-14T05:01:06.823Z,94.01
2022-12-14T05:03:36.145Z,94.02
2022-12-14T05:06:05.589Z,94.02
2022-12-14T05:08:47.318Z,94.27
2022-12-14T05:14:22.323Z,93.61
2022-12-14T05:16:49.694Z,93.61
2022-12-14T05:19:16.818Z,93.41
2022-12-14T05:21:49.307Z,93.48
2022-12-14T05:24:17.259Z,93.68
2022-12-14T05:26:44.412Z,93.59
2022-12-14T05:29:11.531Z,93.81
2022-12-14T05:31:38.569Z,93.52
2022-12-14T05:34:05.376Z,93.81
2022-12-14T05:36:32.006Z,93.45
2022-12-14T05:38:58.683Z,93.55
2022-12-14T05:41:25.382Z,93.70
2022-12-14T05:43:52.427Z,93.84
2022-12-14T05:46:19.143Z,93.76
2022-12-14T05:48:49.212Z,93.33
2022-12-14T05:51:16.482Z,93.39
2022-12-14T05:53:43.490Z,93.71
2022-12-14T05:56:11.861Z,92.97
2022-12-14T05:58:39.244Z,92.97
2022-12-14T06:01:13.957Z,93.24
2022-12-14T06:03:43.965Z,93.38
2022-12-14T06:06:13.168Z,93.43
2022-12-14T06:08:41.275Z,93.38
2022-12-14T06:11:10.323Z,93.36
2022-12-14T06:13:38.145Z,93.49
2022-12-14T06:16:25.457Z,93.27
2022-12-14T06:18:57.563Z,93.38
2022-12-14T06:21:27.404Z,93.57
2022-12-14T06:23:55.705Z,93.53
2022-12-14T06:26:23.103Z,93.19
2022-12-14T06:28:50.137Z,94.17
2022-12-14T06:31:38.466Z,93.89
2022-12-14T06:34:05.509Z,93.32
2022-12-14T06:36:37.447Z,93.19
2022-12-14T06:39:06.995Z,93.59
2022-12-14T06:41:33.818Z,93.70
2022-12-14T06:44:08.312Z,93.52
2022-12-14T06:46:36.324Z,93.32
2022-12-14T06:49:05.031Z,93.40
2022-12-14T06:51:32.324Z,93.36
2022-12-14T06:53:59.112Z,93.69
2022-12-14T06:56:28.359Z,94.24
2022-12-14T06:58:55.502Z,94.37
2022-12-14T07:01:24.460Z,94.74
2022-12-14T07:03:56.319Z,95.02
2022-12-14T07:06:24.811Z,95.11
2022-12-14T07:08:56.183Z,95.14
2022-12-14T07:11:23.032Z,95.13
2022-12-14T07:13:49.970Z,94.72
2022-12-14T07:16:19.897Z,94.37
2022-12-14T07:18:47.678Z,94.24
2022-12-14T07:21:16.957Z,93.50
2022-12-14T07:23:45.728Z,93.61
2022-12-14T07:26:21.821Z,93.49
2022-12-14T07:28:49.211Z,93.04
2022-12-14T07:31:24.587Z,92.59
2022-12-14T07:33:56.921Z,92.24
2022-12-14T07:36:24.723Z,91.85
2022-12-14T07:38:52.504Z,92.36
2022-12-14T07:41:23.111Z,91.97
2022-12-14T07:43:51.624Z,91.96
2022-12-14T07:46:21.526Z,91.78
2022-12-14T07:48:51.370Z,92.27
2022-12-14T07:51:21.352Z,92.67
2022-12-14T07:53:48.840Z,93.38
2022-12-14T07:56:20.990Z,93.50
2022-12-14T07:58:48.325Z,93.52
2022-12-14T08:01:15.142Z,93.49
2022-12-14T08:03:45.650Z,92.98
2022-12-14T08:06:14.110Z,93.14
2022-12-14T08:08:41.786Z,94.04
2022-12-14T08:11:10.175Z,93.66
2022-12-14T08:13:39.042Z,93.48
2022-12-14T08:16:08.360Z,93.64
2022-12-14T08:18:35.899Z,93.36
2022-12-14T08:21:04.863Z,93.13
2022-12-14T08:23:32.694Z,93.06
2022-12-14T08:26:01.396Z,92.39
2022-12-14T08:28:29.782Z,91.70
2022-12-14T08:30:57.542Z,92.05
2022-12-14T08:33:24.811Z,91.88
2022-12-14T08:35:51.716Z,92.06
2022-12-14T08:38:38.796Z,92.94
2022-12-14T08:41:08.226Z,92.99
2022-12-14T08:43:35.738Z,92.82
2022-12-14T08:46:03.778Z,93.12
2022-12-14T08:48:30.969Z,92.35
2022-12-14T08:51:05.493Z,91.23
2022-12-14T08:53:32.848Z,91.92
2022-12-14T08:56:08.349Z,92.96
2022-12-14T08:58:35.426Z,91.87
2022-12-14T09:01:07.464Z,92.86
2022-12-14T09:03:34.353Z,93.34
2022-12-14T09:06:04.013Z,92.93
2022-12-14T09:08:31.513Z,92.86
2022-12-14T09:10:58.438Z,92.78
2022-12-14T09:13:25.344Z,92.92
2022-12-14T09:15:59.293Z,92.34
2022-12-14T09:18:26.927Z,91.91
2022-12-14T09:20:57.408Z,91.85
2022-12-14T09:23:25.724Z,92.12
2022-12-14T09:26:22.521Z,90.24
2022-12-14T09:28:54.269Z,90.52
2022-12-14T09:31:23.852Z,88.56
2022-12-14T09:33:51.081Z,88.86
2022-12-14T09:36:21.044Z,87.30
2022-12-14T09:38:51.754Z,86.50
2022-12-14T09:41:29.258Z,86.15
2022-12-14T09:44:18.199Z,86.37
2022-12-14T09:47:10.888Z,85.95
2022-12-14T09:49:46.668Z,86.70
2022-12-14T09:52:18.687Z,87.24
2022-12-14T09:54:49.712Z,87.48
2022-12-14T09:57:27.667Z,86.03
2022-12-14T09:59:55.090Z,86.98
2022-12-14T10:02:46.493Z,85.70
2022-12-14T10:05:32.210Z,86.51
2022-12-14T10:08:35.775Z,87.08
2022-12-14T10:11:11.718Z,85.92
2022-12-14T10:13:47.391Z,84.55
2022-12-14T10:16:32.110Z,84.08
2022-12-14T10:19:10.866Z,85.23
2022-12-14T10:21:56.907Z,86.62
2022-12-14T10:24:51.769Z,87.73
2022-12-14T10:27:24.313Z,87.11
2022-12-14T10:30:04.047Z,87.45
2022-12-14T10:32:39.721Z,88.41
2022-12-14T10:35:14.825Z,88.17
2022-12-14T10:37:58.510Z,88.17
2022-12-14T10:40:34.832Z,88.07
2022-12-14T10:43:04.883Z,88.09
2022-12-14T10:45:47.221Z,88.06
2022-12-14T10:48:25.551Z,87.87
2022-12-14T10:51:10.744Z,87.87
2022-12-14T10:53:58.929Z,87.50
2022-12-14T10:56:33.486Z,86.53
2022-12-14T10:59:18.558Z,87.30
2022-12-14T11:01:48.242Z,87.05
2022-12-14T11:04:47.331Z,84.29
2022-12-14T11:07:15.963Z,83.32
2022-12-14T11:09:43.603Z,82.92
2022-12-14T11:12:13.593Z,82.95
2022-12-14T11:15:02.273Z,83.84
2022-12-14T11:17:34.146Z,82.87
2022-12-14T11:20:22.680Z,82.25
2022-12-14T11:23:08.484Z,81.22
2022-12-14T11:25:41.680Z,81.67
2022-12-14T11:28:36.550Z,82.61
2022-12-14T11:31:13.314Z,82.61
2022-12-14T11:33:46.002Z,82.50
2022-12-14T11:36:24.877Z,82.50
2022-12-14T11:39:00.939Z,83.06
2022-12-14T11:41:36.800Z,80.23
2022-12-14T11:44:07.129Z,79.56
2022-12-14T11:46:46.111Z,79.11
2022-12-14T11:49:39.200Z,81.18
2022-12-14T11:52:05.910Z,80.38
2022-12-14T11:54:34.218Z,80.49
2022-12-14T11:57:12.826Z,81.57
2022-12-14T12:00:02.769Z,81.74
2022-12-14T12:02:37.058Z,81.66
2022-12-14T12:05:16.148Z,81.76
2022-12-14T12:07:52.243Z,81.27
2022-12-14T12:10:40.365Z,80.54
2022-12-14T12:13:26.658Z,80.93
2022-12-14T12:16:19.853Z,81.02
2022-12-14T12:18:48.638Z,81.31
2022-12-14T12:21:18.095Z,79.60
2022-12-14T12:23:57.914Z,79.71
2022-12-14T12:26:43.577Z,79.54
2022-12-14T12:29:24.165Z,80.05
2022-12-14T12:31:50.713Z,78.86
2022-12-14T12:34:21.785Z,80.70
2022-12-14T12:37:17.484Z,81.50
2022-12-14T12:39:40.739Z,81.57
2022-12-14T12:42:42.434Z,81.11
2022-12-14T12:45:14.999Z,80.34
2022-12-14T12:47:48.345Z,79.80
2022-12-14T12:50:22.744Z,80.11
2022-12-14T12:53:09.582Z,79.77
2022-12-14T12:55:42.476Z,79.93
2022-12-14T12:58:21.099Z,79.39
2022-12-14T13:00:51.677Z,79.65
2022-12-14T13:03:51.481Z,80.58
2022-12-14T13:06:27.830Z,81.15
2022-12-14T13:09:11.959Z,82.37
2022-12-14T13:11:40.278Z,82.70
2022-12-14T13:14:26.358Z,81.46
2022-12-14T13:16:54.956Z,82.26
2022-12-14T13:19:54.887Z,81.22
2022-12-14T13:22:33.822Z,81.29
2022-12-14T13:25:14.371Z,82.51
2022-12-14T13:28:01.070Z,82.15
2022-12-14T13:30:46.256Z,82.48
2022-12-14T13:33:54.452Z,81.86
2022-12-14T13:36:42.528Z,82.31
2022-12-14T13:39:26.294Z,82.25
2022-12-14T13:42:16.214Z,82.21
2022-12-14T13:45:01.316Z,82.74
2022-12-14T13:47:33.568Z,82.84
2022-12-14T13:52:50.577Z,83.54
2022-12-14T13:55:32.490Z,83.32
2022-12-14T13:58:34.025Z,83.22
2022-12-14T14:01:09.346Z,83.45
2022-12-14T14:03:36.142Z,83.87
2022-12-14T14:06:17.523Z,84.79
2022-12-14T14:08:47.109Z,84.13
2022-12-14T14:11:38.745Z,83.70
2022-12-14T14:14:36.342Z,83.67
2022-12-14T14:17:12.078Z,82.29
2022-12-14T14:19:41.359Z,81.07
2022-12-14T14:22:25.237Z,80.94
2022-12-14T14:24:59.819Z,82.00
2022-12-14T14:27:37.089Z,82.25
2022-12-14T14:30:23.496Z,82.17
2022-12-14T14:32:53.989Z,82.87
2022-12-14T14:35:23.877Z,83.66
2022-12-14T14:38:00.205Z,83.61
2022-12-14T14:40:51.326Z,83.97
2022-12-14T14:43:35.054Z,83.50
2022-12-14T14:46:05.717Z,83.69
2022-12-14T14:48:41.395Z,83.72
2022-12-14T14:51:10.835Z,84.38
2022-12-14T14:53:39.336Z,83.97
2022-12-14T14:56:12.350Z,83.99
2022-12-14T14:58:41.947Z,83.87
2022-12-14T15:01:25.029Z,84.26
2022-12-14T15:03:51.895Z,84.93
2022-12-14T15:06:39.935Z,85.16
2022-12-14T15:09:09.356Z,85.06
2022-12-14T15:11:57.662Z,84.76
2022-12-14T15:14:43.312Z,85.12
2022-12-14T15:17:20.185Z,85.49
2022-12-14T15:19:55.248Z,86.30
2022-12-14T15:22:25.131Z,86.31
2022-12-14T15:24:55.880Z,86.63
2022-12-14T15:27:31.860Z,86.93
2022-12-14T15:30:19.198Z,86.75
2022-12-14T15:33:06.823Z,87.30
2022-12-14T15:35:37.346Z,87.28
2022-12-14T15:38:18.782Z,87.07
2022-12-14T15:40:56.063Z,87.46
2022-12-14T15:43:23.859Z,87.41
2022-12-14T15:45:54.133Z,87.37
2022-12-14T15:48:34.569Z,87.64
2022-12-14T15:51:07.382Z,87.56
2022-12-14T15:53:35.584Z,87.48
2022-12-14T15:56:27.093Z,87.36
2022-12-14T15:58:54.182Z,87.23
2022-12-14T16:01:26.124Z,86.78
2022-12-14T16:03:55.375Z,86.68
2022-12-14T16:06:26.476Z,86.85
2022-12-14T16:08:56.231Z,86.83
2022-12-14T16:11:28.643Z,86.78
2022-12-14T16:13:56.843Z,86.89
2022-12-14T16:16:23.840Z,87.18
2022-12-14T16:18:51.527Z,87.44
2022-12-14T16:21:35.649Z,87.25
2022-12-14T16:24:22.382Z,87.58
2022-12-14T16:26:58.248Z,87.97
2022-12-14T16:29:28.837Z,87.87
2022-12-14T16:32:14.714Z,87.95
2022-12-14T16:34:47.623Z,88.04
2022-12-14T16:37:33.901Z,88.57
2022-12-14T16:40:01.008Z,88.46
2022-12-14T16:42:28.097Z,88.74
2022-12-14T16:44:54.897Z,89.12
2022-12-14T16:47:21.590Z,89.28
2022-12-14T16:49:48.139Z,89.64
2022-12-14T16:52:20.775Z,89.53
2022-12-14T16:55:15.028Z,89.54
2022-12-14T16:57:56.108Z,89.93
2022-12-14T17:00:34.001Z,90.21
2022-12-14T17:03:23.165Z,90.73
2022-12-14T17:05:56.729Z,90.92
2022-12-14T17:08:23.281Z,90.83
2022-12-14T17:10:50.925Z,91.13
2022-12-14T17:13:17.806Z,91.79
2022-12-14T17:16:04.685Z,91.51
2022-12-14T17:18:40.470Z,91.94
2022-12-14T17:21:08.928Z,92.03
2022-12-14T17:23:40.071Z,92.13
2022-12-14T17:26:06.691Z,91.89
2022-12-14T17:28:34.707Z,91.39
2022-12-14T17:31:03.112Z,91.53
2022-12-14T17:33:32.119Z,91.25
2022-12-14T17:35:59.338Z,91.09
2022-12-14T17:38:25.992Z,91.00
2022-12-14T17:40:53.977Z,90.75
2022-12-14T17:43:25.605Z,90.72
2022-12-14T17:45:53.027Z,90.64
2022-12-14T17:48:20.981Z,90.58
2022-12-14T17:50:49.919Z,90.80
2022-12-14T17:53:21.363Z,90.86
2022-12-14T17:55:48.231Z,91.12
2022-12-14T17:58:14.823Z,91.04
2022-12-14T18:01:00.104Z,90.96
2022-12-14T18:03:29.915Z,90.72
2022-12-14T18:05:58.228Z,90.72
2022-12-14T18:08:26.586Z,90.48
2022-12-14T18:11:10.248Z,90.50
2022-12-14T18:13:40.434Z,90.21
2022-12-14T18:16:10.176Z,90.37
2022-12-14T18:18:36.784Z,90.26
2022-12-14T18:21:04.943Z,90.58
2022-12-14T18:23:32.197Z,90.67
2022-12-14T18:26:00.421Z,90.33
2022-12-14T18:28:27.097Z,90.46
2022-12-14T18:31:02.293Z,90.41
2022-12-14T18:33:29.839Z,90.69
2022-12-14T18:35:57.721Z,90.69
2022-12-14T18:38:24.615Z,90.45
2022-12-14T18:40:53.851Z,90.14
2022-12-14T18:43:24.749Z,90.44
2022-12-14T18:45:53.186Z,90.54
2022-12-14T18:48:21.010Z,90.43
2022-12-14T18:50:49.803Z,89.97
2022-12-14T18:53:18.880Z,90.25
2022-12-14T18:55:46.211Z,90.10
2022-12-14T18:58:21.003Z,89.69
2022-12-14T19:00:50.539Z,89.87
2022-12-14T19:03:17.787Z,89.98
2022-12-14T19:05:45.480Z,89.50
2022-12-14T19:08:12.876Z,89.97
2022-12-14T19:10:42.444Z,90.30
2022-12-14T19:13:14.714Z,90.08
2022-12-14T19:15:41.392Z,90.46
2022-12-14T19:18:08.080Z,90.62
2022-12-14T19:20:34.813Z,90.27
2022-12-14T19:23:02.503Z,90.19
2022-12-14T19:25:29.565Z,90.09
2022-12-14T19:28:30.873Z,89.66
2022-12-14T19:30:44.543Z,89.70
2022-12-14T19:33:11.558Z,89.96
2022-12-14T19:35:42.403Z,90.02
2022-12-14T19:38:13.512Z,90.24
2022-12-14T19:40:40.893Z,90.55
2022-12-14T19:43:07.607Z,90.61
2022-12-14T19:45:35.083Z,91.19
2022-12-14T19:48:01.791Z,90.75
2022-12-14T19:50:28.471Z,91.14
2022-12-14T19:52:55.155Z,91.66
2022-12-14T19:55:21.875Z,91.76
2022-12-14T19:57:48.549Z,91.59
2022-12-14T20:00:15.403Z,91.47
2022-12-14T20:02:42.201Z,91.30
2022-12-14T20:05:09.404Z,91.56
2022-12-14T20:07:41.844Z,91.55
2022-12-14T20:10:10.297Z,91.85
2022-12-14T20:12:37.372Z,91.57
2022-12-14T20:15:04.407Z,91.82
2022-12-14T20:17:31.038Z,91.71
2022-12-14T20:19:57.812Z,91.71
2022-12-14T20:22:24.471Z,91.41
2022-12-14T20:24:51.083Z,91.32
2022-12-14T20:27:17.814Z,91.43
2022-12-14T20:29:44.453Z,91.13
2022-12-14T20:32:11.231Z,90.82
2022-12-14T20:34:39.192Z,90.77
2022-12-14T20:37:06.622Z,90.70
2022-12-14T20:39:33.218Z,90.79
2022-12-14T20:41:59.832Z,91.13
2022-12-14T20:44:26.589Z,91.13
2022-12-14T20:46:53.416Z,91.57
2022-12-14T20:49:21.456Z,91.48
2022-12-14T20:51:49.004Z,91.59
2022-12-14T20:54:19.055Z,91.64
2022-12-14T20:56:49.204Z,91.49
2022-12-14T20:59:16.414Z,91.85
2022-12-14T21:01:43.339Z,91.68
2022-12-14T21:04:10.310Z,92.20
2022-12-14T21:06:39.540Z,92.04
2022-12-14T21:09:09.439Z,92.04
2022-12-14T21:12:08.803Z,92.06
2022-12-14T21:14:43.493Z,92.77
2022-12-14T21:17:11.044Z,93.01
2022-12-14T21:19:37.766Z,92.55
2022-12-14T21:22:06.210Z,92.17
2022-12-14T21:27:26.047Z,92.39
2022-12-14T21:29:53.477Z,92.52
2022-12-14T21:32:21.946Z,92.42
2022-12-14T21:34:49.084Z,92.46
2022-12-14T21:37:16.107Z,92.67
2022-12-14T21:39:46.347Z,92.91
2022-12-14T21:42:20.645Z,92.60
2022-12-14T21:44:49.511Z,92.58
2022-12-14T21:47:19.430Z,92.31
2022-12-14T21:49:46.604Z,92.21
2022-12-14T21:52:16.363Z,92.33
2022-12-14T21:54:43.575Z,92.59
2022-12-14T21:57:36.626Z,92.34
2022-12-14T22:00:05.740Z,92.59
2022-12-14T22:02:32.461Z,92.67
2022-12-14T22:04:59.337Z,92.78
2022-12-14T22:07:30.426Z,92.75
2022-12-14T22:09:57.181Z,93.34
2022-12-14T22:12:23.866Z,93.48
2022-12-14T22:14:51.117Z,93.38
2022-12-14T22:17:17.863Z,93.44
2022-12-14T22:19:44.606Z,93.71
2022-12-14T22:22:16.524Z,93.71
2022-12-14T22:24:44.130Z,93.83
2022-12-14T22:27:12.150Z,93.48
2022-12-14T22:29:39.402Z,93.49
2022-12-14T22:32:07.223Z,93.19
2022-12-14T22:34:34.284Z,93.71
2022-12-14T22:37:01.108Z,93.89
2022-12-14T22:39:27.878Z,94.52
2022-12-14T22:41:54.698Z,94.07
2022-12-14T22:44:21.460Z,93.87
2022-12-14T22:46:48.130Z,93.92
2022-12-14T22:49:17.904Z,94.06
2022-12-14T22:51:45.568Z,95.11
2022-12-14T22:54:23.927Z,94.99
2022-12-14T22:57:02.450Z,95.38
2022-12-14T22:59:39.057Z,95.49
2022-12-14T23:02:06.276Z,95.89
2022-12-14T23:04:33.570Z,95.81
2022-12-14T23:07:00.177Z,95.64
2022-12-14T23:09:45.550Z,95.34
2022-12-14T23:12:30.859Z,95.08
2022-12-14T23:15:16.440Z,94.86
2022-12-14T23:18:01.706Z,95.19
2022-12-14T23:20:46.958Z,95.86
2022-12-14T23:23:32.295Z,96.26
2022-12-14T23:26:25.362Z,96.22
2022-12-14T23:29:16.161Z,96.36
2022-12-14T23:35:11.003Z,95.45
2022-12-14T23:37:56.630Z,95.72
2022-12-14T23:40:47.266Z,96.12
2022-12-14T23:43:35.630Z,95.78
2022-12-14T23:46:23.309Z,95.36
2022-12-14T23:49:13.670Z,95.29
2022-12-14T23:52:01.016Z,95.04
2022-12-14T23:54:49.192Z,95.42
2022-12-14T23:57:34.877Z,95.24
